San Luis Obispo, CA (93405)

8:03 PM PST on March 02, 2015 (GMT -0800)
Oceanaire Drive | Change Station
CLOSE
Current Station
Personal Weather Station
Location: San Luis Obispo, CA
Elevation: 135 ft
Nearby Weather Stations

Elev 135 ft 35.26 °N, 120.69 °W | Updated 12 minutes ago

Partly Cloudy
Partly Cloudy
48.6 °F
Feels Like 49 °F
N
1.6
Wind Variable Wind from SSE

Today
High -- | Low -- °F
--% Chance of Precip.
Yesterday
High -- | Low -- °F
Precip. -- in
6:31 AM 5:59 PM
Waxing Gibbous, 94% visible
Pressure 29.94 in
Visibility 10.0 miles
Clouds Few 2400 ft
Scattered Clouds 3000 ft
Mostly Cloudy 3800 ft
Windchill 49 °F
Dew Point 47 °F
Humidity 94%
Rainfall 0.00 in
Snow Depth Not available.
UV 0 out of 12
Pollen 6.70 out of 12
Air Quality Not available.
Flu Activity Not available.
METAR KSBP 030356Z 15004KT 10SM FEW024 SCT030 BKN038 09/07 A2993 RMK AO2 SLP137 T00940072

More Conditions Fewer Conditions

Pressure 29.94 in
Visibility 10.0 miles
Clouds Few 2400 ft
Scattered Clouds 3000 ft
Mostly Cloudy 3800 ft
Windchill 49 °F
Dew Point 47 °F
Humidity 94%
Rainfall 0.00 in
Snow Depth Not available.
UV 0 out of 12
Pollen 6.70 out of 12
Air Quality Not available.
Flu Activity Not available.
METAR KSBP 030356Z 15004KT 10SM FEW024 SCT030 BKN038 09/07 A2993 RMK AO2 SLP137 T00940072

More Conditions Fewer Conditions

10-Day Weather Forecast

Almanac

Astronomy

Mar. 02, 2015 Rise Set
Actual Time
Civil Twilight
Nautical Twilight
Astronomical Twilight
Moon
Length of Visible Light
Length of Day
Tomorrow will be .
, % of the Moon is Illuminated

Today's Extremes

State Highs State Lows

Community

WunderPhotos

Upload Photos

1,802,061 photos uploaded!

WunderBlogs® & News

Nearby

Air Quality

  Air Quality AQ Index Pollutant
Not available.

Snow Depth

Station Depth Elevation

Earthquake Activity

City Distance Mag. Time & Date
Minimum magnitude displayed is 2.5.

Coastal Water Temperatures

Place Temperature

Nearby Weather Stations